sensor_id;sensor_type;location;lat;lon;timestamp;pressure;altitude;pressure_sealevel;temperature;humidity
52935;BME280;38802;50.198;19.796;2023-05-02T00:00:06;96190.81;;;10.13;55.22
52935;BME280;38802;50.198;19.796;2023-05-02T00:02:54;96187.43;;;10.18;55.39
52935;BME280;38802;50.198;19.796;2023-05-02T00:05:23;96187.42;;;10.24;55.23
52935;BME280;38802;50.198;19.796;2023-05-02T00:07:51;96186.27;;;10.30;55.20
52935;BME280;38802;50.198;19.796;2023-05-02T00:10:19;96185.33;;;10.37;55.36
52935;BME280;38802;50.198;19.796;2023-05-02T00:12:47;96184.17;;;10.41;55.45
52935;BME280;38802;50.198;19.796;2023-05-02T00:15:15;96184.16;;;10.46;55.53
52935;BME280;38802;50.198;19.796;2023-05-02T00:17:43;96179.36;;;10.47;55.61
52935;BME280;38802;50.198;19.796;2023-05-02T00:20:11;96179.92;;;10.53;55.70
52935;BME280;38802;50.198;19.796;2023-05-02T00:22:40;96178.73;;;10.58;55.76
52935;BME280;38802;50.198;19.796;2023-05-02T00:25:08;96180.38;;;10.56;55.55
52935;BME280;38802;50.198;19.796;2023-05-02T00:27:36;96179.98;;;10.48;55.47
52935;BME280;38802;50.198;19.796;2023-05-02T00:30:04;96179.83;;;10.43;55.73
52935;BME280;38802;50.198;19.796;2023-05-02T00:32:32;96176.12;;;10.42;55.85
52935;BME280;38802;50.198;19.796;2023-05-02T00:35:00;96176.84;;;10.42;56.04
52935;BME280;38802;50.198;19.796;2023-05-02T00:37:28;96176.47;;;10.39;55.99
52935;BME280;38802;50.198;19.796;2023-05-02T00:39:57;96176.67;;;10.35;56.12
52935;BME280;38802;50.198;19.796;2023-05-02T00:42:25;96176.66;;;10.33;56.39
52935;BME280;38802;50.198;19.796;2023-05-02T00:44:53;96176.23;;;10.34;56.63
52935;BME280;38802;50.198;19.796;2023-05-02T00:47:21;96181.48;;;10.37;56.45
52935;BME280;38802;50.198;19.796;2023-05-02T00:49:50;96182.52;;;10.42;56.68
52935;BME280;38802;50.198;19.796;2023-05-02T00:52:18;96184.85;;;10.48;56.80
52935;BME280;38802;50.198;19.796;2023-05-02T00:54:46;96183.13;;;10.52;56.47
52935;BME280;38802;50.198;19.796;2023-05-02T00:57:14;96181.77;;;10.55;56.65
52935;BME280;38802;50.198;19.796;2023-05-02T00:59:42;96182.45;;;10.58;56.80
52935;BME280;38802;50.198;19.796;2023-05-02T01:05:09;96182.70;;;10.63;56.76
52935;BME280;38802;50.198;19.796;2023-05-02T01:08:02;96183.11;;;10.60;56.59
52935;BME280;38802;50.198;19.796;2023-05-02T01:10:58;96184.30;;;10.56;56.59
52935;BME280;38802;50.198;19.796;2023-05-02T01:13:32;96183.42;;;10.46;56.67
52935;BME280;38802;50.198;19.796;2023-05-02T01:16:01;96186.23;;;10.37;56.79
52935;BME280;38802;50.198;19.796;2023-05-02T01:18:33;96184.13;;;10.26;56.53
52935;BME280;38802;50.198;19.796;2023-05-02T01:21:06;96184.77;;;10.17;56.85
52935;BME280;38802;50.198;19.796;2023-05-02T01:24:01;96190.45;;;10.08;56.83
52935;BME280;38802;50.198;19.796;2023-05-02T01:29:56;96189.46;;;9.99;57.10
52935;BME280;38802;50.198;19.796;2023-05-02T01:32:28;96190.19;;;9.96;57.25
52935;BME280;38802;50.198;19.796;2023-05-02T01:34:59;96191.48;;;10.00;57.44
52935;BME280;38802;50.198;19.796;2023-05-02T01:37:29;96188.44;;;10.07;57.46
52935;BME280;38802;50.198;19.796;2023-05-02T01:39:58;96190.36;;;10.14;57.46
52935;BME280;38802;50.198;19.796;2023-05-02T01:42:29;96188.16;;;10.24;57.65
52935;BME280;38802;50.198;19.796;2023-05-02T01:44:58;96187.79;;;10.33;57.41
52935;BME280;38802;50.198;19.796;2023-05-02T01:47:32;96186.11;;;10.38;57.34
52935;BME280;38802;50.198;19.796;2023-05-02T01:50:04;96185.17;;;10.46;57.42
52935;BME280;38802;50.198;19.796;2023-05-02T01:52:33;96184.05;;;10.51;57.04
52935;BME280;38802;50.198;19.796;2023-05-02T01:55:04;96188.09;;;10.48;57.07
52935;BME280;38802;50.198;19.796;2023-05-02T01:57:37;96186.13;;;10.47;57.03
52935;BME280;38802;50.198;19.796;2023-05-02T02:00:07;96187.55;;;10.46;57.09
52935;BME280;38802;50.198;19.796;2023-05-02T02:02:42;96184.42;;;10.49;57.18
52935;BME280;38802;50.198;19.796;2023-05-02T02:05:15;96185.61;;;10.47;56.92
52935;BME280;38802;50.198;19.796;2023-05-02T02:07:45;96189.42;;;10.43;56.88
52935;BME280;38802;50.198;19.796;2023-05-02T02:10:13;96186.19;;;10.46;57.15
52935;BME280;38802;50.198;19.796;2023-05-02T02:12:52;96187.05;;;10.48;56.91
52935;BME280;38802;50.198;19.796;2023-05-02T02:15:29;96185.49;;;10.42;56.96
52935;BME280;38802;50.198;19.796;2023-05-02T02:18:12;96188.17;;;10.36;56.83
52935;BME280;38802;50.198;19.796;2023-05-02T02:20:42;96183.05;;;10.37;57.12
52935;BME280;38802;50.198;19.796;2023-05-02T02:23:13;96186.63;;;10.38;56.85
52935;BME280;38802;50.198;19.796;2023-05-02T02:25:43;96187.78;;;10.39;56.69
52935;BME280;38802;50.198;19.796;2023-05-02T02:28:12;96189.21;;;10.38;56.54
52935;BME280;38802;50.198;19.796;2023-05-02T02:30:40;96192.28;;;10.35;56.45
52935;BME280;38802;50.198;19.796;2023-05-02T02:33:08;96189.62;;;10.27;56.39
52935;BME280;38802;50.198;19.796;2023-05-02T02:35:52;96186.98;;;10.13;56.31
52935;BME280;38802;50.198;19.796;2023-05-02T02:41:10;96192.66;;;9.92;56.10
52935;BME280;38802;50.198;19.796;2023-05-02T02:44:09;96189.52;;;9.86;56.08
52935;BME280;38802;50.198;19.796;2023-05-02T02:46:49;96193.54;;;9.85;56.20
52935;BME280;38802;50.198;19.796;2023-05-02T02:49:31;96186.98;;;9.82;56.04
52935;BME280;38802;50.198;19.796;2023-05-02T02:52:09;96190.08;;;9.76;55.76
52935;BME280;38802;50.198;19.796;2023-05-02T02:54:55;96192.83;;;9.74;55.97
52935;BME280;38802;50.198;19.796;2023-05-02T03:00:21;96197.48;;;9.75;55.63
52935;BME280;38802;50.198;19.796;2023-05-02T03:02:52;96193.85;;;9.74;55.35
52935;BME280;38802;50.198;19.796;2023-05-02T03:05:21;96198.75;;;9.74;55.19
52935;BME280;38802;50.198;19.796;2023-05-02T03:07:50;96196.33;;;9.76;55.20
52935;BME280;38802;50.198;19.796;2023-05-02T03:10:21;96198.14;;;9.80;55.10
52935;BME280;38802;50.198;19.796;2023-05-02T03:12:50;96198.98;;;9.80;54.76
52935;BME280;38802;50.198;19.796;2023-05-02T03:18:10;96202.29;;;9.69;54.49
52935;BME280;38802;50.198;19.796;2023-05-02T03:20:39;96203.88;;;9.66;54.53
52935;BME280;38802;50.198;19.796;2023-05-02T03:23:09;96204.41;;;9.62;54.31
52935;BME280;38802;50.198;19.796;2023-05-02T03:25:37;96203.12;;;9.59;54.19
52935;BME280;38802;50.198;19.796;2023-05-02T03:28:06;96203.97;;;9.57;54.09
52935;BME280;38802;50.198;19.796;2023-05-02T03:30:35;96201.23;;;9.54;54.14
52935;BME280;38802;50.198;19.796;2023-05-02T03:33:07;96202.86;;;9.51;54.01
52935;BME280;38802;50.198;19.796;2023-05-02T03:35:36;96200.56;;;9.49;54.08
52935;BME280;38802;50.198;19.796;2023-05-02T03:38:04;96205.75;;;9.47;53.93
52935;BME280;38802;50.198;19.796;2023-05-02T03:40:32;96205.35;;;9.45;53.96
52935;BME280;38802;50.198;19.796;2023-05-02T03:43:00;96206.11;;;9.47;53.83
52935;BME280;38802;50.198;19.796;2023-05-02T03:45:29;96208.45;;;9.50;53.90
52935;BME280;38802;50.198;19.796;2023-05-02T03:47:58;96207.80;;;9.52;53.89
52935;BME280;38802;50.198;19.796;2023-05-02T03:50:27;96211.58;;;9.55;53.83
52935;BME280;38802;50.198;19.796;2023-05-02T03:52:55;96213.31;;;9.57;53.64
52935;BME280;38802;50.198;19.796;2023-05-02T03:55:28;96211.86;;;9.60;53.66
52935;BME280;38802;50.198;19.796;2023-05-02T03:57:56;96212.29;;;9.61;53.61
52935;BME280;38802;50.198;19.796;2023-05-02T04:00:24;96210.58;;;9.63;53.78
52935;BME280;38802;50.198;19.796;2023-05-02T04:02:56;96205.42;;;9.65;53.43
52935;BME280;38802;50.198;19.796;2023-05-02T04:05:27;96205.36;;;9.67;53.69
52935;BME280;38802;50.198;19.796;2023-05-02T04:07:56;96202.66;;;9.71;53.89
52935;BME280;38802;50.198;19.796;2023-05-02T04:10:24;96204.71;;;9.73;53.77
52935;BME280;38802;50.198;19.796;2023-05-02T04:12:56;96204.70;;;9.78;53.80
52935;BME280;38802;50.198;19.796;2023-05-02T04:15:25;96203.90;;;9.84;53.77
52935;BME280;38802;50.198;19.796;2023-05-02T04:17:54;96204.92;;;9.88;53.79
52935;BME280;38802;50.198;19.796;2023-05-02T04:20:22;96208.61;;;9.94;53.70
52935;BME280;38802;50.198;19.796;2023-05-02T04:22:51;96207.02;;;10.01;53.91
52935;BME280;38802;50.198;19.796;2023-05-02T04:25:20;96210.59;;;10.11;53.93
52935;BME280;38802;50.198;19.796;2023-05-02T04:27:50;96209.15;;;10.20;53.88
52935;BME280;38802;50.198;19.796;2023-05-02T04:30:21;96212.05;;;10.27;54.02
52935;BME280;38802;50.198;19.796;2023-05-02T04:32:57;96210.91;;;10.34;54.01
52935;BME280;38802;50.198;19.796;2023-05-02T04:35:27;96213.09;;;10.35;53.83
52935;BME280;38802;50.198;19.796;2023-05-02T04:37:55;96211.40;;;10.37;53.71
52935;BME280;38802;50.198;19.796;2023-05-02T04:40:23;96211.88;;;10.37;53.97
52935;BME280;38802;50.198;19.796;2023-05-02T04:42:58;96213.42;;;10.40;53.64
52935;BME280;38802;50.198;19.796;2023-05-02T04:45:35;96212.25;;;10.44;53.75
52935;BME280;38802;50.198;19.796;2023-05-02T04:48:06;96215.15;;;10.51;53.88
52935;BME280;38802;50.198;19.796;2023-05-02T04:50:34;96210.74;;;10.60;53.86
52935;BME280;38802;50.198;19.796;2023-05-02T04:53:02;96213.99;;;10.71;54.08
52935;BME280;38802;50.198;19.796;2023-05-02T04:55:31;96213.90;;;10.82;54.01
52935;BME280;38802;50.198;19.796;2023-05-02T04:57:59;96218.65;;;10.94;54.20
52935;BME280;38802;50.198;19.796;2023-05-02T05:00:27;96216.79;;;11.04;54.08
52935;BME280;38802;50.198;19.796;2023-05-02T05:02:56;96216.92;;;11.15;53.83
52935;BME280;38802;50.198;19.796;2023-05-02T05:05:27;96219.58;;;11.29;53.80
52935;BME280;38802;50.198;19.796;2023-05-02T05:07:56;96220.86;;;11.46;53.92
52935;BME280;38802;50.198;19.796;2023-05-02T05:10:44;96215.39;;;11.69;53.63
52935;BME280;38802;50.198;19.796;2023-05-02T05:13:13;96213.49;;;11.87;53.14
52935;BME280;38802;50.198;19.796;2023-05-02T05:15:42;96215.83;;;12.06;52.82
52935;BME280;38802;50.198;19.796;2023-05-02T05:18:12;96206.02;;;12.24;52.49
52935;BME280;38802;50.198;19.796;2023-05-02T05:20:40;96203.87;;;12.44;52.56
52935;BME280;38802;50.198;19.796;2023-05-02T05:23:11;96203.96;;;12.63;51.42
52935;BME280;38802;50.198;19.796;2023-05-02T05:25:39;96203.79;;;12.79;50.69
52935;BME280;38802;50.198;19.796;2023-05-02T05:28:10;96200.48;;;13.02;50.69
52935;BME280;38802;50.198;19.796;2023-05-02T05:30:38;96197.36;;;13.23;50.31
52935;BME280;38802;50.198;19.796;2023-05-02T05:33:09;96196.84;;;13.43;50.06
52935;BME280;38802;50.198;19.796;2023-05-02T05:35:38;96196.77;;;13.66;50.06
52935;BME280;38802;50.198;19.796;2023-05-02T05:38:06;96196.55;;;13.87;49.72
52935;BME280;38802;50.198;19.796;2023-05-02T05:40:37;96199.56;;;14.08;50.16
52935;BME280;38802;50.198;19.796;2023-05-02T05:43:06;96194.36;;;14.31;50.13
52935;BME280;38802;50.198;19.796;2023-05-02T05:45:37;96196.67;;;14.52;50.17
52935;BME280;38802;50.198;19.796;2023-05-02T05:48:06;96202.25;;;14.71;49.90
52935;BME280;38802;50.198;19.796;2023-05-02T05:50:40;96203.96;;;14.91;49.30
52935;BME280;38802;50.198;19.796;2023-05-02T05:53:08;96208.77;;;15.08;49.27
52935;BME280;38802;50.198;19.796;2023-05-02T05:55:38;96212.01;;;15.24;48.50
52935;BME280;38802;50.198;19.796;2023-05-02T05:58:09;96214.17;;;15.36;47.22
52935;BME280;38802;50.198;19.796;2023-05-02T06:00:39;96210.70;;;15.46;46.43
52935;BME280;38802;50.198;19.796;2023-05-02T06:03:07;96211.32;;;15.50;46.54
52935;BME280;38802;50.198;19.796;2023-05-02T06:05:37;96216.11;;;15.53;46.42
52935;BME280;38802;50.198;19.796;2023-05-02T06:08:05;96216.67;;;15.52;45.92
52935;BME280;38802;50.198;19.796;2023-05-02T06:10:33;96218.05;;;15.51;46.15
52935;BME280;38802;50.198;19.796;2023-05-02T06:13:02;96222.04;;;15.54;45.62
52935;BME280;38802;50.198;19.796;2023-05-02T06:15:34;96223.88;;;15.54;45.52
52935;BME280;38802;50.198;19.796;2023-05-02T06:18:04;96229.45;;;15.52;45.13
52935;BME280;38802;50.198;19.796;2023-05-02T06:20:34;96226.48;;;15.49;45.19
52935;BME280;38802;50.198;19.796;2023-05-02T06:23:02;96232.61;;;15.42;44.80
52935;BME280;38802;50.198;19.796;2023-05-02T06:25:30;96234.48;;;15.39;45.54
52935;BME280;38802;50.198;19.796;2023-05-02T06:28:00;96235.20;;;15.44;45.15
52935;BME280;38802;50.198;19.796;2023-05-02T06:30:29;96237.34;;;15.54;44.85
52935;BME280;38802;50.198;19.796;2023-05-02T06:32:57;96237.51;;;15.66;45.27
52935;BME280;38802;50.198;19.796;2023-05-02T06:35:25;96236.44;;;15.83;44.90
52935;BME280;38802;50.198;19.796;2023-05-02T06:37:53;96234.41;;;15.98;44.05
52935;BME280;38802;50.198;19.796;2023-05-02T06:40:21;96231.76;;;16.12;44.56
52935;BME280;38802;50.198;19.796;2023-05-02T06:42:49;96232.70;;;16.34;44.62
52935;BME280;38802;50.198;19.796;2023-05-02T06:45:17;96231.02;;;16.52;44.66
52935;BME280;38802;50.198;19.796;2023-05-02T06:47:45;96233.38;;;16.72;44.50
52935;BME280;38802;50.198;19.796;2023-05-02T06:50:13;96236.52;;;16.89;43.95
52935;BME280;38802;50.198;19.796;2023-05-02T06:52:41;96240.52;;;17.03;43.77
52935;BME280;38802;50.198;19.796;2023-05-02T06:55:09;96241.06;;;17.10;43.21
52935;BME280;38802;50.198;19.796;2023-05-02T06:57:37;96242.83;;;17.18;44.03
52935;BME280;38802;50.198;19.796;2023-05-02T07:00:05;96241.05;;;17.30;43.49
52935;BME280;38802;50.198;19.796;2023-05-02T07:02:33;96241.83;;;17.37;43.53
52935;BME280;38802;50.198;19.796;2023-05-02T07:05:01;96242.66;;;17.45;43.12
52935;BME280;38802;50.198;19.796;2023-05-02T07:07:31;96246.73;;;17.51;43.33
52935;BME280;38802;50.198;19.796;2023-05-02T07:09:59;96249.50;;;17.60;43.47
52935;BME280;38802;50.198;19.796;2023-05-02T07:12:27;96251.20;;;17.70;43.09
52935;BME280;38802;50.198;19.796;2023-05-02T07:14:55;96250.24;;;17.77;43.54
52935;BME280;38802;50.198;19.796;2023-05-02T07:17:23;96252.51;;;17.92;43.54
52935;BME280;38802;50.198;19.796;2023-05-02T07:19:52;96256.82;;;18.00;43.73
52935;BME280;38802;50.198;19.796;2023-05-02T07:22:20;96258.02;;;18.11;43.90
52935;BME280;38802;50.198;19.796;2023-05-02T07:24:56;96254.25;;;18.20;43.68
52935;BME280;38802;50.198;19.796;2023-05-02T07:27:24;96260.33;;;18.17;43.75
52935;BME280;38802;50.198;19.796;2023-05-02T07:29:52;96259.48;;;18.22;43.87
52935;BME280;38802;50.198;19.796;2023-05-02T07:32:20;96258.08;;;18.25;43.90
52935;BME280;38802;50.198;19.796;2023-05-02T07:34:49;96265.47;;;18.30;44.22
52935;BME280;38802;50.198;19.796;2023-05-02T07:37:20;96266.62;;;18.35;44.08
52935;BME280;38802;50.198;19.796;2023-05-02T07:39:48;96271.68;;;18.38;44.20
52935;BME280;38802;50.198;19.796;2023-05-02T07:42:16;96273.30;;;18.36;44.39
52935;BME280;38802;50.198;19.796;2023-05-02T07:44:45;96274.42;;;18.31;44.55
52935;BME280;38802;50.198;19.796;2023-05-02T07:47:13;96276.16;;;18.25;44.29
52935;BME280;38802;50.198;19.796;2023-05-02T07:49:41;96278.08;;;18.14;44.52
52935;BME280;38802;50.198;19.796;2023-05-02T07:52:09;96278.16;;;18.11;45.00
52935;BME280;38802;50.198;19.796;2023-05-02T07:54:37;96282.33;;;18.09;44.96
52935;BME280;38802;50.198;19.796;2023-05-02T07:57:05;96280.14;;;18.10;44.88
52935;BME280;38802;50.198;19.796;2023-05-02T07:59:35;96278.48;;;18.14;44.98
52935;BME280;38802;50.198;19.796;2023-05-02T08:02:03;96277.64;;;18.23;44.66
52935;BME280;38802;50.198;19.796;2023-05-02T08:04:32;96276.45;;;18.21;44.75
52935;BME280;38802;50.198;19.796;2023-05-02T08:07:00;96278.16;;;18.18;44.74
52935;BME280;38802;50.198;19.796;2023-05-02T08:09:29;96281.59;;;18.17;45.07
52935;BME280;38802;50.198;19.796;2023-05-02T08:11:57;96280.48;;;18.15;45.04
52935;BME280;38802;50.198;19.796;2023-05-02T08:14:25;96276.15;;;18.17;45.30
52935;BME280;38802;50.198;19.796;2023-05-02T08:16:53;96275.33;;;18.25;45.47
52935;BME280;38802;50.198;19.796;2023-05-02T08:19:21;96267.04;;;18.38;45.45
52935;BME280;38802;50.198;19.796;2023-05-02T08:21:49;96269.53;;;18.54;45.52
52935;BME280;38802;50.198;19.796;2023-05-02T08:24:17;96264.98;;;18.73;45.74
52935;BME280;38802;50.198;19.796;2023-05-02T08:26:46;96268.08;;;18.86;44.46
52935;BME280;38802;50.198;19.796;2023-05-02T08:29:14;96276.35;;;18.89;44.88
52935;BME280;38802;50.198;19.796;2023-05-02T08:31:43;96277.10;;;18.90;44.71
52935;BME280;38802;50.198;19.796;2023-05-02T08:34:11;96276.89;;;18.87;44.52
52935;BME280;38802;50.198;19.796;2023-05-02T08:36:39;96279.97;;;18.89;44.74
52935;BME280;38802;50.198;19.796;2023-05-02T08:39:07;96277.61;;;18.99;44.65
52935;BME280;38802;50.198;19.796;2023-05-02T08:41:36;96275.60;;;19.09;44.43
52935;BME280;38802;50.198;19.796;2023-05-02T08:44:05;96281.79;;;19.16;44.55
52935;BME280;38802;50.198;19.796;2023-05-02T08:46:35;96286.61;;;19.26;44.61
52935;BME280;38802;50.198;19.796;2023-05-02T08:49:04;96283.70;;;19.30;44.46
52935;BME280;38802;50.198;19.796;2023-05-02T08:51:33;96279.70;;;19.36;44.18
52935;BME280;38802;50.198;19.796;2023-05-02T08:54:05;96278.09;;;19.37;44.04
52935;BME280;38802;50.198;19.796;2023-05-02T08:56:34;96278.23;;;19.36;43.82
52935;BME280;38802;50.198;19.796;2023-05-02T08:59:02;96279.27;;;19.42;44.10
52935;BME280;38802;50.198;19.796;2023-05-02T09:01:31;96276.31;;;19.54;44.27
52935;BME280;38802;50.198;19.796;2023-05-02T09:04:00;96277.46;;;19.62;44.49
52935;BME280;38802;50.198;19.796;2023-05-02T09:06:29;96276.48;;;19.67;44.04
52935;BME280;38802;50.198;19.796;2023-05-02T09:08:59;96276.04;;;19.70;43.99
52935;BME280;38802;50.198;19.796;2023-05-02T09:11:28;96276.06;;;19.75;44.20
52935;BME280;38802;50.198;19.796;2023-05-02T09:13:56;96278.13;;;19.83;44.20
52935;BME280;38802;50.198;19.796;2023-05-02T09:16:49;96272.32;;;19.98;44.00
52935;BME280;38802;50.198;19.796;2023-05-02T09:19:25;96273.79;;;20.14;43.66
52935;BME280;38802;50.198;19.796;2023-05-02T09:22:00;96272.23;;;20.26;43.42
52935;BME280;38802;50.198;19.796;2023-05-02T09:24:29;96271.91;;;20.41;43.23
52935;BME280;38802;50.198;19.796;2023-05-02T09:27:02;96272.84;;;20.49;43.22
52935;BME280;38802;50.198;19.796;2023-05-02T09:29:32;96271.02;;;20.60;43.09
52935;BME280;38802;50.198;19.796;2023-05-02T09:32:06;96273.70;;;20.71;43.08
52935;BME280;38802;50.198;19.796;2023-05-02T09:34:34;96274.95;;;20.74;42.92
52935;BME280;38802;50.198;19.796;2023-05-02T09:37:04;96280.32;;;20.69;42.84
52935;BME280;38802;50.198;19.796;2023-05-02T09:39:33;96281.34;;;20.61;42.62
52935;BME280;38802;50.198;19.796;2023-05-02T09:42:01;96281.99;;;20.44;42.39
52935;BME280;38802;50.198;19.796;2023-05-02T09:44:36;96282.63;;;20.21;42.11
52935;BME280;38802;50.198;19.796;2023-05-02T09:47:06;96283.92;;;20.04;41.85
52935;BME280;38802;50.198;19.796;2023-05-02T09:49:40;96282.69;;;19.97;42.10
52935;BME280;38802;50.198;19.796;2023-05-02T09:52:10;96288.48;;;20.01;42.47
52935;BME280;38802;50.198;19.796;2023-05-02T09:54:38;96285.37;;;20.13;42.29
52935;BME280;38802;50.198;19.796;2023-05-02T09:57:07;96283.04;;;20.25;42.73
52935;BME280;38802;50.198;19.796;2023-05-02T09:59:35;96287.35;;;20.37;42.78
52935;BME280;38802;50.198;19.796;2023-05-02T10:02:04;96285.77;;;20.49;43.00
52935;BME280;38802;50.198;19.796;2023-05-02T10:04:34;96289.90;;;20.61;43.14
52935;BME280;38802;50.198;19.796;2023-05-02T10:07:03;96289.33;;;20.69;42.58
52935;BME280;38802;50.198;19.796;2023-05-02T10:09:34;96293.98;;;20.65;42.64
52935;BME280;38802;50.198;19.796;2023-05-02T10:12:03;96287.61;;;20.68;42.81
52935;BME280;38802;50.198;19.796;2023-05-02T10:14:36;96288.02;;;20.72;42.27
52935;BME280;38802;50.198;19.796;2023-05-02T10:17:19;96291.30;;;20.67;41.96
52935;BME280;38802;50.198;19.796;2023-05-02T10:19:59;96287.62;;;20.61;42.09
52935;BME280;38802;50.198;19.796;2023-05-02T10:22:33;96288.73;;;20.51;41.79
52935;BME280;38802;50.198;19.796;2023-05-02T10:25:02;96289.75;;;20.38;41.90
52935;BME280;38802;50.198;19.796;2023-05-02T10:27:31;96291.23;;;20.32;42.16
52935;BME280;38802;50.198;19.796;2023-05-02T10:30:00;96291.11;;;20.29;42.54
52935;BME280;38802;50.198;19.796;2023-05-02T10:32:35;96289.31;;;20.35;42.66
52935;BME280;38802;50.198;19.796;2023-05-02T10:35:06;96291.02;;;20.41;42.60
52935;BME280;38802;50.198;19.796;2023-05-02T10:37:35;96285.84;;;20.44;42.57
52935;BME280;38802;50.198;19.796;2023-05-02T10:40:09;96293.11;;;20.41;42.24
52935;BME280;38802;50.198;19.796;2023-05-02T10:42:41;96296.92;;;20.29;42.32
52935;BME280;38802;50.198;19.796;2023-05-02T10:45:30;96297.25;;;20.22;42.32
52935;BME280;38802;50.198;19.796;2023-05-02T10:48:21;96297.67;;;20.07;42.42
52935;BME280;38802;50.198;19.796;2023-05-02T10:50:52;96296.47;;;20.02;42.88
52935;BME280;38802;50.198;19.796;2023-05-02T10:53:25;96298.24;;;20.07;43.11
52935;BME280;38802;50.198;19.796;2023-05-02T10:56:07;96292.45;;;20.06;42.96
52935;BME280;38802;50.198;19.796;2023-05-02T10:58:35;96296.01;;;19.96;42.45
52935;BME280;38802;50.198;19.796;2023-05-02T11:04:09;96297.55;;;19.72;42.42
52935;BME280;38802;50.198;19.796;2023-05-02T11:09:30;96296.88;;;19.57;42.85
52935;BME280;38802;50.198;19.796;2023-05-02T11:12:00;96296.34;;;19.62;42.94
52935;BME280;38802;50.198;19.796;2023-05-02T11:17:07;96298.13;;;19.70;43.16
52935;BME280;38802;50.198;19.796;2023-05-02T11:24:48;96294.83;;;19.79;42.40
52935;BME280;38802;50.198;19.796;2023-05-02T11:29:58;96298.23;;;19.74;42.73
52935;BME280;38802;50.198;19.796;2023-05-02T11:35:24;96304.00;;;19.74;42.62
52935;BME280;38802;50.198;19.796;2023-05-02T11:38:02;96306.89;;;19.74;42.96
52935;BME280;38802;50.198;19.796;2023-05-02T11:40:31;96305.42;;;19.71;42.77
52935;BME280;38802;50.198;19.796;2023-05-02T11:43:00;96303.08;;;19.69;42.73
52935;BME280;38802;50.198;19.796;2023-05-02T11:45:33;96303.65;;;19.70;42.77
52935;BME280;38802;50.198;19.796;2023-05-02T11:48:06;96296.16;;;19.69;42.96
52935;BME280;38802;50.198;19.796;2023-05-02T11:53:20;96289.84;;;19.91;42.92
52935;BME280;38802;50.198;19.796;2023-05-02T11:55:56;96294.16;;;19.97;42.64
52935;BME280;38802;50.198;19.796;2023-05-02T11:58:27;96303.05;;;19.93;42.43
52935;BME280;38802;50.198;19.796;2023-05-02T12:00:57;96302.88;;;19.84;42.10
52935;BME280;38802;50.198;19.796;2023-05-02T12:03:31;96300.83;;;19.78;42.02
52935;BME280;38802;50.198;19.796;2023-05-02T12:06:14;96305.93;;;19.70;42.28
52935;BME280;38802;50.198;19.796;2023-05-02T12:08:43;96300.67;;;19.67;42.29
52935;BME280;38802;50.198;19.796;2023-05-02T12:11:13;96301.98;;;19.71;42.15
52935;BME280;38802;50.198;19.796;2023-05-02T12:13:46;96302.17;;;19.66;42.11
52935;BME280;38802;50.198;19.796;2023-05-02T12:16:16;96298.41;;;19.65;42.29
52935;BME280;38802;50.198;19.796;2023-05-02T12:18:45;96298.22;;;19.68;42.61
52935;BME280;38802;50.198;19.796;2023-05-02T12:21:14;96302.16;;;19.77;43.06
52935;BME280;38802;50.198;19.796;2023-05-02T12:23:42;96302.62;;;19.80;42.81
52935;BME280;38802;50.198;19.796;2023-05-02T12:26:18;96298.75;;;19.77;42.65
52935;BME280;38802;50.198;19.796;2023-05-02T12:28:51;96300.94;;;19.76;42.78
52935;BME280;38802;50.198;19.796;2023-05-02T12:31:22;96304.49;;;19.81;43.40
52935;BME280;38802;50.198;19.796;2023-05-02T12:33:51;96309.80;;;19.79;43.76
52935;BME280;38802;50.198;19.796;2023-05-02T12:36:24;96311.78;;;19.61;44.05
52935;BME280;38802;50.198;19.796;2023-05-02T12:38:53;96318.41;;;19.49;44.29
52935;BME280;38802;50.198;19.796;2023-05-02T12:41:35;96316.47;;;19.45;44.74
52935;BME280;38802;50.198;19.796;2023-05-02T12:44:04;96315.30;;;19.35;45.16
52935;BME280;38802;50.198;19.796;2023-05-02T12:46:34;96316.41;;;19.21;45.56
52935;BME280;38802;50.198;19.796;2023-05-02T12:49:07;96318.61;;;19.11;45.70
52935;BME280;38802;50.198;19.796;2023-05-02T12:51:39;96317.68;;;19.12;46.22
52935;BME280;38802;50.198;19.796;2023-05-02T12:54:19;96320.68;;;19.13;46.34
52935;BME280;38802;50.198;19.796;2023-05-02T12:56:47;96322.10;;;19.21;46.86
52935;BME280;38802;50.198;19.796;2023-05-02T12:59:26;96322.23;;;19.17;47.08
52935;BME280;38802;50.198;19.796;2023-05-02T13:01:54;96321.75;;;19.15;47.10
52935;BME280;38802;50.198;19.796;2023-05-02T13:04:39;96326.87;;;19.07;47.19
52935;BME280;38802;50.198;19.796;2023-05-02T13:07:08;96330.83;;;19.03;47.31
52935;BME280;38802;50.198;19.796;2023-05-02T13:09:36;96326.02;;;18.99;47.00
52935;BME280;38802;50.198;19.796;2023-05-02T13:12:04;96328.17;;;19.06;47.12
52935;BME280;38802;50.198;19.796;2023-05-02T13:14:32;96327.33;;;19.10;47.14
52935;BME280;38802;50.198;19.796;2023-05-02T13:17:00;96327.26;;;19.16;47.34
52935;BME280;38802;50.198;19.796;2023-05-02T13:19:29;96327.45;;;19.13;47.40
52935;BME280;38802;50.198;19.796;2023-05-02T13:21:58;96329.09;;;19.07;47.42
52935;BME280;38802;50.198;19.796;2023-05-02T13:24:26;96334.05;;;19.01;47.51
52935;BME280;38802;50.198;19.796;2023-05-02T13:26:54;96333.02;;;18.98;47.51
52935;BME280;38802;50.198;19.796;2023-05-02T13:29:22;96334.08;;;18.93;47.66
52935;BME280;38802;50.198;19.796;2023-05-02T13:31:50;96332.78;;;18.84;47.88
52935;BME280;38802;50.198;19.796;2023-05-02T13:34:18;96334.48;;;18.80;47.92
52935;BME280;38802;50.198;19.796;2023-05-02T13:36:46;96330.98;;;18.71;48.12
52935;BME280;38802;50.198;19.796;2023-05-02T13:39:14;96332.02;;;18.68;48.17
52935;BME280;38802;50.198;19.796;2023-05-02T13:41:42;96327.53;;;18.69;48.23
52935;BME280;38802;50.198;19.796;2023-05-02T13:44:11;96334.23;;;18.66;48.27